AFR758 LFPG-TFFR
Flight info
| Callsign | AFR758 |
|---|---|
| Flight time | N/A |
| Altitude | 32000 |
| Route | LGL UN491 UPALO/N0483F310 UN585 FEJAC DCT BADUR DCT REGHI/M083F320 DCT ETIKI DCT 47N015W 46N020W 40N030W 33N040W/M083F340 29N045W 25N050W 21N055W DCT BNJEE/N0483F340 DCT BOSET BOSET2A |
| Aircraft | B77W/H-SDE1E2E3FGHIJ2J3J4J5M1RWXY/LB1D1 |
Departure
| Time | N/A |
|---|---|
| Airport | Charles de Gaulle International Airport (LFPG) |
Arrival
| Time | 2026-04-27 23:45 |
|---|---|
| Airport | Maryse Condé International Airport (TFFR) |
| Time | Latitude | Longitude | Altitude | Speed | Heading |
|---|---|---|---|---|---|
| 2026-04-27 22:40 | 20.27359 | -56.24964 | 36125 ft | 435 kts | 239° |
| 2026-04-27 22:41 | 20.25754 | -56.27695 | 36120 ft | 435 kts | 239° |
| 2026-04-27 22:41 | 20.22541 | -56.33159 | 36101 ft | 437 kts | 239° |
| 2026-04-27 22:42 | 20.19278 | -56.38702 | 36119 ft | 446 kts | 239° |
| 2026-04-27 22:42 | 20.15985 | -56.44290 | 36118 ft | 445 kts | 239° |
| 2026-04-27 22:43 | 20.12690 | -56.49877 | 36119 ft | 445 kts | 239° |
| 2026-04-27 22:43 | 20.09399 | -56.55450 | 36114 ft | 444 kts | 239° |
| 2026-04-27 22:44 | 20.06132 | -56.60978 | 36114 ft | 444 kts | 239° |
| 2026-04-27 22:44 | 20.02853 | -56.66522 | 36117 ft | 443 kts | 239° |
| 2026-04-27 22:45 | 19.99571 | -56.72064 | 36109 ft | 442 kts | 239° |
| 2026-04-27 22:45 | 19.96289 | -56.77603 | 36115 ft | 442 kts | 239° |
| 2026-04-27 22:46 | 19.92999 | -56.83149 | 36111 ft | 443 kts | 239° |
| 2026-04-27 22:46 | 19.89712 | -56.88685 | 36113 ft | 443 kts | 239° |
| 2026-04-27 22:47 | 19.86441 | -56.94190 | 36108 ft | 444 kts | 239° |
| 2026-04-27 22:47 | 19.83141 | -56.99738 | 36110 ft | 444 kts | 239° |
| 2026-04-27 22:48 | 19.79836 | -57.05289 | 36110 ft | 445 kts | 239° |
| 2026-04-27 22:48 | 19.76525 | -57.10844 | 36110 ft | 445 kts | 239° |
| 2026-04-27 22:49 | 19.73212 | -57.16398 | 36104 ft | 445 kts | 239° |
| 2026-04-27 22:49 | 19.69891 | -57.21960 | 36105 ft | 445 kts | 239° |
| 2026-04-27 22:50 | 19.66569 | -57.27519 | 36109 ft | 445 kts | 239° |
| 2026-04-27 22:50 | 19.63246 | -57.33074 | 36103 ft | 446 kts | 238° |
| 2026-04-27 22:51 | 19.59926 | -57.38619 | 36105 ft | 446 kts | 238° |
| 2026-04-27 22:51 | 19.56619 | -57.44137 | 36102 ft | 446 kts | 238° |
| 2026-04-27 22:52 | 19.53293 | -57.49683 | 36102 ft | 446 kts | 238° |
| 2026-04-27 22:52 | 19.49962 | -57.55230 | 36100 ft | 446 kts | 238° |
| 2026-04-27 22:53 | 19.46633 | -57.60770 | 36102 ft | 446 kts | 238° |
| 2026-04-27 22:53 | 19.43298 | -57.66314 | 36103 ft | 446 kts | 238° |
| 2026-04-27 22:54 | 19.39964 | -57.71852 | 36101 ft | 446 kts | 238° |
| 2026-04-27 22:54 | 19.36627 | -57.77390 | 36102 ft | 446 kts | 238° |
| 2026-04-27 22:55 | 19.33291 | -57.82921 | 36102 ft | 446 kts | 238° |
| 2026-04-27 22:55 | 19.29963 | -57.88434 | 36100 ft | 446 kts | 238° |
| 2026-04-27 22:56 | 19.26622 | -57.93964 | 36100 ft | 446 kts | 238° |
| 2026-04-27 22:56 | 19.23271 | -57.99504 | 36097 ft | 446 kts | 238° |
| 2026-04-27 22:57 | 19.19918 | -58.05042 | 36097 ft | 446 kts | 238° |
| 2026-04-27 22:57 | 19.16565 | -58.10577 | 36099 ft | 446 kts | 238° |
| 2026-04-27 22:58 | 19.13236 | -58.16066 | 36099 ft | 446 kts | 238° |
| 2026-04-27 22:58 | 19.09883 | -58.21591 | 36099 ft | 446 kts | 238° |
| 2026-04-27 22:59 | 19.06526 | -58.27116 | 36098 ft | 446 kts | 238° |
| 2026-04-27 22:59 | 19.03172 | -58.32633 | 36096 ft | 446 kts | 238° |
| 2026-04-27 23:00 | 18.98137 | -58.40904 | 36095 ft | 446 kts | 238° |
| 2026-04-27 23:00 | 18.94781 | -58.46411 | 36096 ft | 446 kts | 238° |
| 2026-04-27 23:01 | 18.91445 | -58.51881 | 36095 ft | 446 kts | 238° |
| 2026-04-27 23:01 | 18.88061 | -58.57424 | 36093 ft | 446 kts | 238° |
| 2026-04-27 23:02 | 18.84719 | -58.62893 | 36091 ft | 446 kts | 238° |
| 2026-04-27 23:02 | 18.81355 | -58.68393 | 36090 ft | 446 kts | 238° |
| 2026-04-27 23:03 | 18.77993 | -58.73887 | 36089 ft | 446 kts | 238° |
| 2026-04-27 23:03 | 18.74621 | -58.79391 | 36085 ft | 446 kts | 238° |
| 2026-04-27 23:04 | 18.71250 | -58.84888 | 36090 ft | 446 kts | 238° |
| 2026-04-27 23:04 | 18.68447 | -58.89456 | 36093 ft | 446 kts | 238° |
| 2026-04-27 23:05 | 18.65069 | -58.94956 | 36090 ft | 447 kts | 238° |
| 2026-04-27 23:05 | 18.61686 | -59.00459 | 36090 ft | 447 kts | 238° |
| 2026-04-27 23:06 | 18.57754 | -59.06850 | 36091 ft | 447 kts | 238° |
| 2026-04-27 23:06 | 18.54913 | -59.11463 | 36085 ft | 448 kts | 238° |
| 2026-04-27 23:07 | 18.51542 | -59.16934 | 36089 ft | 448 kts | 237° |
| 2026-04-27 23:07 | 18.48145 | -59.22441 | 36088 ft | 448 kts | 237° |
| 2026-04-27 23:08 | 18.44749 | -59.27942 | 36088 ft | 448 kts | 237° |
| 2026-04-27 23:08 | 18.41346 | -59.33450 | 36083 ft | 448 kts | 237° |
| 2026-04-27 23:09 | 18.37949 | -59.38943 | 36084 ft | 448 kts | 237° |
| 2026-04-27 23:09 | 18.34543 | -59.44447 | 36089 ft | 448 kts | 237° |
| 2026-04-27 23:10 | 18.31133 | -59.49950 | 36084 ft | 448 kts | 237° |
| 2026-04-27 23:10 | 18.27747 | -59.55411 | 36084 ft | 448 kts | 237° |
| 2026-04-27 23:11 | 18.24335 | -59.60911 | 36081 ft | 448 kts | 237° |
| 2026-04-27 23:11 | 18.20920 | -59.66409 | 36084 ft | 448 kts | 237° |
| 2026-04-27 23:12 | 18.17508 | -59.71899 | 36082 ft | 448 kts | 237° |
| 2026-04-27 23:12 | 18.14092 | -59.77390 | 36082 ft | 449 kts | 237° |
| 2026-04-27 23:13 | 18.10675 | -59.82879 | 36076 ft | 449 kts | 237° |
| 2026-04-27 23:13 | 18.07254 | -59.88370 | 36085 ft | 449 kts | 237° |
| 2026-04-27 23:14 | 18.03830 | -59.93862 | 36083 ft | 449 kts | 237° |
| 2026-04-27 23:14 | 18.00233 | -59.99184 | 36080 ft | 450 kts | 230° |
| 2026-04-27 23:15 | 17.95813 | -60.03851 | 36080 ft | 452 kts | 221° |
| 2026-04-27 23:15 | 17.91003 | -60.08108 | 36084 ft | 452 kts | 222° |
| 2026-04-27 23:16 | 17.86209 | -60.12388 | 36081 ft | 452 kts | 222° |
| 2026-04-27 23:16 | 17.81418 | -60.16682 | 36079 ft | 453 kts | 222° |
| 2026-04-27 23:17 | 17.76633 | -60.20973 | 36077 ft | 453 kts | 222° |
| 2026-04-27 23:17 | 17.71873 | -60.25240 | 36074 ft | 453 kts | 222° |
| 2026-04-27 23:18 | 17.67124 | -60.29492 | 36016 ft | 442 kts | 222° |
| 2026-04-27 23:18 | 17.64778 | -60.31592 | 35366 ft | 444 kts | 221° |
| 2026-04-27 23:18 | 17.62433 | -60.33690 | 34698 ft | 444 kts | 221° |
| 2026-04-27 23:19 | 17.60073 | -60.35801 | 34004 ft | 445 kts | 221° |
| 2026-04-27 23:19 | 17.57726 | -60.37900 | 33378 ft | 442 kts | 221° |
| 2026-04-27 23:19 | 17.55387 | -60.39990 | 32781 ft | 439 kts | 221° |
| 2026-04-27 23:19 | 17.53097 | -60.42036 | 32244 ft | 436 kts | 221° |
| 2026-04-27 23:20 | 17.50798 | -60.44089 | 31706 ft | 433 kts | 221° |
| 2026-04-27 23:20 | 17.48510 | -60.46132 | 31173 ft | 430 kts | 221° |
| 2026-04-27 23:20 | 17.46242 | -60.48156 | 30643 ft | 428 kts | 221° |
| 2026-04-27 23:20 | 17.43973 | -60.50181 | 30092 ft | 426 kts | 221° |
| 2026-04-27 23:21 | 17.41725 | -60.52186 | 29461 ft | 424 kts | 221° |
| 2026-04-27 23:21 | 17.39483 | -60.54185 | 28911 ft | 421 kts | 221° |
| 2026-04-27 23:21 | 17.37264 | -60.56163 | 28362 ft | 418 kts | 221° |
| 2026-04-27 23:21 | 17.35058 | -60.58129 | 27840 ft | 415 kts | 221° |
| 2026-04-27 23:22 | 17.32867 | -60.60081 | 27307 ft | 412 kts | 220° |
| 2026-04-27 23:22 | 17.30688 | -60.62022 | 26798 ft | 410 kts | 220° |
| 2026-04-27 23:22 | 17.28525 | -60.63948 | 26277 ft | 407 kts | 220° |
| 2026-04-27 23:22 | 17.26369 | -60.65868 | 25785 ft | 405 kts | 220° |
| 2026-04-27 23:23 | 17.24255 | -60.67748 | 25254 ft | 404 kts | 220° |
| 2026-04-27 23:23 | 17.22169 | -60.69706 | 24749 ft | 402 kts | 225° |
| 2026-04-27 23:23 | 17.20300 | -60.71880 | 24240 ft | 401 kts | 230° |
| 2026-04-27 23:23 | 17.18518 | -60.74113 | 23719 ft | 400 kts | 229° |
| 2026-04-27 23:24 | 17.16715 | -60.76332 | 23146 ft | 399 kts | 229° |
| 2026-04-27 23:24 | 17.14918 | -60.78528 | 22617 ft | 396 kts | 229° |
| 2026-04-27 23:24 | 17.13126 | -60.80712 | 22103 ft | 393 kts | 229° |
| 2026-04-27 23:24 | 17.11352 | -60.82873 | 21596 ft | 391 kts | 229° |
| 2026-04-27 23:25 | 17.09586 | -60.85023 | 21123 ft | 388 kts | 229° |
| 2026-04-27 23:25 | 17.07831 | -60.87159 | 20626 ft | 386 kts | 229° |
| 2026-04-27 23:25 | 17.06083 | -60.89287 | 20149 ft | 385 kts | 229° |
| 2026-04-27 23:25 | 17.04343 | -60.91405 | 19657 ft | 383 kts | 229° |
| 2026-04-27 23:26 | 17.02611 | -60.93513 | 19177 ft | 383 kts | 229° |
| 2026-04-27 23:26 | 17.00879 | -60.95619 | 18682 ft | 382 kts | 229° |
| 2026-04-27 23:26 | 16.99153 | -60.97718 | 18164 ft | 382 kts | 229° |
| 2026-04-27 23:26 | 16.97419 | -60.99827 | 17624 ft | 380 kts | 229° |
| 2026-04-27 23:27 | 16.95697 | -61.01920 | 17139 ft | 378 kts | 229° |
| 2026-04-27 23:27 | 16.94001 | -61.03981 | 16638 ft | 377 kts | 229° |
| 2026-04-27 23:27 | 16.92298 | -61.06050 | 16163 ft | 375 kts | 229° |
| 2026-04-27 23:27 | 16.90599 | -61.08112 | 15681 ft | 373 kts | 229° |
| 2026-04-27 23:28 | 16.88907 | -61.10167 | 15207 ft | 372 kts | 230° |
| 2026-04-27 23:28 | 16.87224 | -61.12210 | 14734 ft | 371 kts | 230° |
| 2026-04-27 23:28 | 16.85541 | -61.14252 | 14252 ft | 371 kts | 230° |
| 2026-04-27 23:28 | 16.83860 | -61.16290 | 13757 ft | 370 kts | 230° |
| 2026-04-27 23:29 | 16.82179 | -61.18329 | 13234 ft | 370 kts | 230° |
| 2026-04-27 23:29 | 16.80505 | -61.20358 | 12756 ft | 368 kts | 230° |
| 2026-04-27 23:29 | 16.78842 | -61.22374 | 12251 ft | 359 kts | 230° |
| 2026-04-27 23:29 | 16.77215 | -61.24345 | 11795 ft | 358 kts | 230° |
| 2026-04-27 23:30 | 16.75591 | -61.26312 | 11346 ft | 357 kts | 230° |
| 2026-04-27 23:30 | 16.73970 | -61.28275 | 10903 ft | 357 kts | 230° |
| 2026-04-27 23:30 | 16.72387 | -61.30190 | 10753 ft | 347 kts | 229° |
| 2026-04-27 23:30 | 16.70832 | -61.32073 | 10571 ft | 339 kts | 229° |
| 2026-04-27 23:31 | 16.69311 | -61.33913 | 10426 ft | 330 kts | 229° |
| 2026-04-27 23:31 | 16.67825 | -61.35710 | 10281 ft | 322 kts | 229° |
| 2026-04-27 23:31 | 16.66378 | -61.37460 | 10148 ft | 314 kts | 229° |
| 2026-04-27 23:31 | 16.64965 | -61.39169 | 9946 ft | 309 kts | 229° |
| 2026-04-27 23:32 | 16.63567 | -61.40859 | 9711 ft | 305 kts | 229° |
| 2026-04-27 23:32 | 16.62197 | -61.42515 | 9541 ft | 297 kts | 229° |
| 2026-04-27 23:32 | 16.60855 | -61.44136 | 9072 ft | 300 kts | 229° |
| 2026-04-27 23:32 | 16.59469 | -61.45810 | 8571 ft | 305 kts | 229° |
| 2026-04-27 23:33 | 16.58124 | -61.47435 | 8403 ft | 292 kts | 229° |
| 2026-04-27 23:33 | 16.56807 | -61.49025 | 7843 ft | 289 kts | 229° |
| 2026-04-27 23:33 | 16.55504 | -61.50599 | 7400 ft | 283 kts | 228° |
| 2026-04-27 23:33 | 16.54234 | -61.52132 | 7048 ft | 275 kts | 228° |
| 2026-04-27 23:34 | 16.53006 | -61.53614 | 6718 ft | 266 kts | 228° |
| 2026-04-27 23:34 | 16.51813 | -61.55054 | 6386 ft | 261 kts | 227° |
| 2026-04-27 23:34 | 16.50605 | -61.56509 | 6091 ft | 271 kts | 227° |
| 2026-04-27 23:34 | 16.49360 | -61.58008 | 5746 ft | 276 kts | 227° |
| 2026-04-27 23:35 | 16.48096 | -61.59532 | 5411 ft | 277 kts | 227° |
| 2026-04-27 23:35 | 16.46864 | -61.61077 | 5067 ft | 277 kts | 232° |
| 2026-04-27 23:35 | 16.45781 | -61.62734 | 4735 ft | 276 kts | 235° |
| 2026-04-27 23:35 | 16.44764 | -61.64364 | 4373 ft | 260 kts | 234° |
| 2026-04-27 23:36 | 16.43800 | -61.65880 | 4106 ft | 240 kts | 233° |
| 2026-04-27 23:36 | 16.42914 | -61.67253 | 4052 ft | 216 kts | 233° |
| 2026-04-27 23:36 | 16.42099 | -61.68509 | 3963 ft | 205 kts | 232° |
| 2026-04-27 23:36 | 16.41278 | -61.69763 | 3735 ft | 213 kts | 233° |
| 2026-04-27 23:37 | 16.40397 | -61.70927 | 3627 ft | 198 kts | 215° |
| 2026-04-27 23:37 | 16.39274 | -61.71686 | 3643 ft | 194 kts | 210° |
| 2026-04-27 23:37 | 16.38149 | -61.72501 | 3622 ft | 195 kts | 212° |
| 2026-04-27 23:37 | 16.37100 | -61.73293 | 3592 ft | 183 kts | 212° |
| 2026-04-27 23:38 | 16.36091 | -61.74053 | 3616 ft | 178 kts | 212° |
| 2026-04-27 23:38 | 16.35081 | -61.74810 | 3595 ft | 177 kts | 212° |
| 2026-04-27 23:38 | 16.34088 | -61.75552 | 3604 ft | 175 kts | 208° |
| 2026-04-27 23:38 | 16.32955 | -61.75908 | 3609 ft | 176 kts | 171° |
| 2026-04-27 23:39 | 16.31800 | -61.75592 | 3577 ft | 164 kts | 151° |
| 2026-04-27 23:39 | 16.30948 | -61.74828 | 3570 ft | 160 kts | 112° |
| 2026-04-27 23:39 | 16.30715 | -61.73736 | 3626 ft | 152 kts | 103° |
| 2026-04-27 23:39 | 16.30357 | -61.72746 | 3632 ft | 142 kts | 113° |
| 2026-04-27 23:40 | 16.30035 | -61.71750 | 3446 ft | 146 kts | 104° |
| 2026-04-27 23:40 | 16.29803 | -61.70733 | 3283 ft | 145 kts | 102° |
| 2026-04-27 23:40 | 16.29600 | -61.69721 | 3067 ft | 141 kts | 103° |
| 2026-04-27 23:40 | 16.29414 | -61.68736 | 2857 ft | 133 kts | 103° |
| 2026-04-27 23:41 | 16.29239 | -61.67810 | 2677 ft | 129 kts | 103° |
| 2026-04-27 23:41 | 16.29065 | -61.66879 | 2525 ft | 136 kts | 102° |
| 2026-04-27 23:41 | 16.28877 | -61.65856 | 2329 ft | 150 kts | 103° |
| 2026-04-27 23:41 | 16.28672 | -61.64754 | 2115 ft | 160 kts | 102° |
| 2026-04-27 23:42 | 16.28458 | -61.63599 | 1880 ft | 160 kts | 101° |
| 2026-04-27 23:42 | 16.28264 | -61.62542 | 1653 ft | 139 kts | 102° |
| 2026-04-27 23:42 | 16.28089 | -61.61594 | 1469 ft | 129 kts | 103° |
| 2026-04-27 23:42 | 16.27920 | -61.60691 | 1306 ft | 124 kts | 103° |
| 2026-04-27 23:43 | 16.27756 | -61.59807 | 1133 ft | 125 kts | 103° |
| 2026-04-27 23:43 | 16.27589 | -61.58901 | 988 ft | 135 kts | 102° |
| 2026-04-27 23:43 | 16.27529 | -61.58572 | 919 ft | 140 kts | 102° |
| 2026-04-27 23:43 | 16.27428 | -61.58032 | 815 ft | 144 kts | 102° |
| 2026-04-27 23:44 | 16.27251 | -61.57004 | 742 ft | 142 kts | 101° |
| 2026-04-27 23:44 | 16.27068 | -61.55986 | 480 ft | 146 kts | 101° |
| 2026-04-27 23:44 | 16.26851 | -61.54913 | 200 ft | 152 kts | 102° |
| 2026-04-27 23:44 | 16.26673 | -61.53893 | 86 ft | 133 kts | 103° |
| 2026-04-27 23:45 | 16.26499 | -61.53006 | 34 ft | 116 kts | 101° |
| 2026-04-27 23:45 | 16.26366 | -61.52310 | 41 ft | 45 kts | 100° |
| 2026-04-27 23:45 | 16.26323 | -61.52062 | 43 ft | 23 kts | 100° |
| 2026-04-27 23:45 | 16.26296 | -61.51909 | 46 ft | 17 kts | 100° |
| 2026-04-27 23:46 | 16.26336 | -61.51809 | 47 ft | 15 kts | 29° |
| 2026-04-27 23:46 | 16.26435 | -61.51827 | 45 ft | 15 kts | 311° |
| 2026-04-27 23:46 | 16.26467 | -61.51913 | 44 ft | 6 kts | 287° |
| 2026-04-27 23:46 | 16.26480 | -61.51962 | 43 ft | 9 kts | 281° |
| 2026-04-27 23:47 | 16.26498 | -61.52061 | 42 ft | 16 kts | 281° |
| 2026-04-27 23:47 | 16.26522 | -61.52167 | 41 ft | 15 kts | 298° |
| 2026-04-27 23:47 | 16.26611 | -61.52197 | 41 ft | 15 kts | 4° |
| 2026-04-27 23:47 | 16.26708 | -61.52214 | 40 ft | 15 kts | 317° |
| 2026-04-27 23:48 | 16.26747 | -61.52342 | 39 ft | 25 kts | 281° |
| 2026-04-27 23:48 | 16.26776 | -61.52498 | 38 ft | 10 kts | 282° |
| 2026-04-27 23:48 | 16.26797 | -61.52538 | 37 ft | 6 kts | 322° |
| 2026-04-27 23:48 | 16.26837 | -61.52543 | 37 ft | 6 kts | 2° |
| 2026-04-27 23:49 | 16.26874 | -61.52539 | 37 ft | 0 kts | 8° |